Terminal Aerodrome Forecast
Issued by NWS

Home | Current Version | Previous Version | Text Only | Print | Product List | Glossary On
Versions: 1 2 3 4 5 6 7 8 9 10 11 12 13 14 15 16 17 18 19 20 21 22 23 24 25 26 27 28 29 30 31 32 33 34 35 36 37
000
FTUS46 KEKA 062348
TAFCEC
TAF
KCEC 062348Z 0700/0724 20007KT P6SM OVC015
     FM070400 VRB03KT P6SM OVC009
      TEMPO 0711/0715 2SM BR OVC004
     FM072000 26005KT P6SM OVC020=

USA.gov is the U.S. government's official web portal to all federal, state and local government web resources and services.